Hoogeveen Airport

EHHO · Drente, Países Baixos

História da METAR EHHO · Hoogeveen Airport

Abaixo você vê METARs dos últimos dias. Selecione um ano para navegar pelos METARs mais antigos, a partir do ano 2007.

5 de dezembro de 2022

Hora Código Clima Temp. Visibilidade Tecto Vento METAR/SPECI
12:55
I
5 °C 8 km 500 ft 040° 040° 9 kt METAR EHGG 051155Z AUTO 04009KT 360V070 8000 FEW004 BKN005 BKN007 05/05 Q1019 TEMPO BKN020
12:25
I
5 °C 4,9 km 600 ft 030° 030° 10 kt METAR EHGG 051125Z AUTO 03010KT 360V060 4900 FEW005 BKN006 BKN007 05/04 Q1020 BECMG 9999 TEMPO BKN020
11:55
I
5 °C 9 km 800 ft 030° 030° 9 kt METAR EHGG 051055Z AUTO 03009KT 360V070 9000 FEW005 SCT007 BKN008 05/05 Q1020 BECMG 9999 TEMPO BKN020
11:25
I
5 °C 5 km 600 ft 040° 040° 9 kt METAR EHGG 051025Z AUTO 04009KT 010V070 5000 BR FEW005 BKN006 BKN008 05/04 Q1020 TEMPO 4000 DZ
10:55
I
5 °C 10 km+ 700 ft 040° 040° 9 kt METAR EHGG 050955Z AUTO 04009KT 9999 SCT006 OVC007 05/04 Q1020 TEMPO 4000 DZ
10:25
I
5 °C 10 km+ 600 ft 040° 040° 9 kt METAR EHGG 050925Z AUTO 04009KT 360V070 9999 BKN006 OVC007 05/04 Q1020 TEMPO 4000 DZ
09:55
I
5 °C 10 km+ 700 ft 040° 040° 11 kt METAR EHGG 050855Z AUTO 04011KT 360V070 9999 -DZ FEW006 BKN007 OVC008 05/04 Q1020 TEMPO 4000 DZ
09:25
I
5 °C 9 km 500 ft 040° 040° 11 kt METAR EHGG 050825Z AUTO 04011KT 9000 BKN005 OVC006 05/04 Q1019 TEMPO 4000 DZ
08:55
I
5 °C 8 km 500 ft 040° 040° 12 kt METAR EHGG 050755Z AUTO 04012KT 360V080 8000 BKN005 OVC006 05/04 Q1019 TEMPO 4000 DZ
08:25
L
5 °C 8 km 400 ft 040° 040° 12 kt METAR EHGG 050725Z AUTO 04012KT 360V070 8000 BKN004 OVC006 05/04 Q1019 TEMPO 4000 DZ BKN004
07:55
I
5 °C 9 km 600 ft 040° 040° 10 kt METAR EHGG 050655Z AUTO 04010KT 360V070 9000 FEW004 BKN006 OVC007 05/05 Q1019 TEMPO 4000 DZ BKN004
07:25
I
5 °C 9 km 600 ft 040° 040° 11 kt METAR EHGG 050625Z AUTO 04011KT 9000 -DZ FEW004 SCT005 BKN006 05/04 Q1019 TEMPO 4000 DZ BKN004
06:55
I
5 °C 9 km 600 ft 040° 040° 9 kt METAR EHGG 050555Z AUTO 04009KT 350V070 9000 FEW004 BKN006 BKN007 05/04 Q1019 TEMPO 4000 DZ BKN004
06:25
I
5 °C 7 km 700 ft 040° 040° 9 kt METAR EHGG 050525Z AUTO 04009KT 010V070 7000 -DZ FEW004/// SCT005/// BKN007/// 05/05 Q1019 REDZ TEMPO 4000 DZ BKN004
05:55
L
5 °C 5 km 400 ft 040° 040° 9 kt METAR EHGG 050455Z AUTO 04009KT 010V070 5000 DZ BKN004 BKN005 OVC007 05/04 Q1019
05:25
I
5 °C 7 km 600 ft 040° 040° 10 kt METAR EHGG 050425Z AUTO 04010KT 010V080 7000 SCT005 BKN006 BKN008 05/04 Q1019
04:55
M
5 °C 8 km 1.200 ft 040° 040° 10 kt METAR EHGG 050355Z AUTO 04010KT 360V070 8000 FEW005 SCT008 BKN012 05/04 Q1019
04:25
I
5 °C 10 km+ 900 ft 030° 030° 9 kt METAR EHGG 050325Z AUTO 03009KT 350V060 9999 SCT007 BKN009 OVC010 05/04 Q1019
03:55
M
5 °C 9 km 1.000 ft 040° 040° 8 kt METAR EHGG 050255Z AUTO 04008KT 350V070 9000 -RADZ FEW007 SCT009 OVC010 05/04 Q1019
03:25
M
5 °C 10 km+ 1.100 ft 040° 040° 7 kt METAR EHGG 050225Z AUTO 04007KT 360V080 9999 FEW009 BKN011 BKN014 05/04 Q1019
02:55
I
5 °C 9 km 900 ft 040° 040° 8 kt METAR EHGG 050155Z AUTO 04008KT 010V070 9000 FEW008 BKN009 OVC010 05/04 Q1019
02:25
I
5 °C 10 km+ 900 ft 030° 030° 7 kt METAR EHGG 050125Z AUTO 03007KT 360V060 9999 OVC009 05/03 Q1019
01:55
M
5 °C 10 km+ 1.000 ft 060° 060° 10 kt METAR EHGG 050055Z AUTO 06010KT 9999 BKN010 OVC013 05/03 Q1019
01:25
M
5 °C 10 km+ 2.800 ft 040° 040° 8 kt METAR EHGG 050025Z AUTO 04008KT 010V080 9999 SCT013/// OVC028/// 05/02 Q1019
00:55
M
5 °C 10 km+ 2.100 ft 050° 050° 9 kt METAR EHGG 042355Z AUTO 05009KT 010V090 9999 SCT017 OVC021 05/02 Q1019
00:25
M
4 °C 10 km+ 2.400 ft 050° 050° 10 kt METAR EHGG 042325Z AUTO 05010KT 9999 OVC024 04/02 Q1019

4 de dezembro de 2022

Hora Código Clima Temp. Visibilidade Tecto Vento METAR/SPECI
23:55
M
4 °C 10 km+ 2.100 ft 050° 050° 10 kt METAR EHGG 042255Z AUTO 05010KT 9999 OVC021 04/02 Q1019
23:25
M
4 °C 9 km 1.200 ft 070° 070° 10 kt METAR EHGG 042225Z AUTO 07010KT 9000 FEW010 BKN012 OVC015 04/02 Q1020
22:55
M
4 °C 9 km 1.800 ft 050° 050° 10 kt METAR EHGG 042155Z AUTO 05010KT 020V080 9000 FEW015 OVC018 04/02 Q1020 BECMG BKN012
22:25
M
4 °C 9 km 1.500 ft 050° 050° 10 kt METAR EHGG 042125Z AUTO 05010KT 9000 BKN015/// OVC024/// 04/02 Q1020 BECMG BKN012
21:55
M
4 °C 9 km 1.100 ft 060° 060° 10 kt METAR EHGG 042055Z AUTO 06010KT 9000 BKN011/// BKN014/// OVC017/// 04/02 Q1020 BECMG BKN012
21:25
M
4 °C 9 km 1.400 ft 060° 060° 10 kt METAR EHGG 042025Z AUTO 06010KT 030V090 9000 BKN014 OVC017 04/02 Q1020 BECMG BKN012
20:55
M
4 °C 10 km+ 1.500 ft 070° 070° 11 kt METAR EHGG 041955Z AUTO 07011KT 020V090 9999 FEW013 OVC015 04/01 Q1020 NOSIG
20:25
M
4 °C 10 km+ 1.300 ft 070° 070° 11 kt METAR EHGG 041925Z AUTO 07011KT 030V090 9999 BKN013 OVC016 04/01 Q1020 NOSIG
19:55
M
4 °C 10 km+ 1.300 ft 070° 070° 11 kt METAR EHGG 041855Z AUTO 07011KT 040V110 9999 OVC013 04/01 Q1020 NOSIG
19:25
M
3 °C 10 km+ 1.300 ft 060° 060° 10 kt METAR EHGG 041825Z AUTO 06010KT 030V100 9999 OVC013/// 03/01 Q1020 NOSIG
18:55
M
3 °C 9 km 1.300 ft 060° 060° 11 kt METAR EHGG 041755Z AUTO 06011KT 030V090 9000 BKN013 OVC015 03/01 Q1020 NOSIG
18:25
M
3 °C 9 km 1.300 ft 060° 060° 12 kt METAR EHGG 041725Z AUTO 06012KT 030V090 9000 BKN013 OVC015 03/01 Q1020 NOSIG
17:55
M
3 °C 9 km 1.500 ft 060° 060° 11 kt METAR EHGG 041655Z AUTO 06011KT 030V090 9000 FEW013 OVC015 03/01 Q1020 NOSIG
17:25
M
3 °C 8 km 1.400 ft 060° 060° 11 kt METAR EHGG 041625Z AUTO 06011KT 030V090 8000 FEW009 SCT012 BKN014 03/01 Q1020 NOSIG
16:55
M
2 °C 9 km 1.700 ft 060° 060° 12 kt METAR EHGG 041555Z AUTO 06012KT 030V090 9000 FEW012 OVC017 02/00 Q1019 NOSIG
16:25
M
2 °C 10 km+ 1.700 ft 060° 060° 10 kt METAR EHGG 041525Z AUTO 06010KT 030V090 9999 OVC017 02/M00 Q1019 NOSIG
15:55
M
2 °C 9 km 1.400 ft 080° 080° 12 kt METAR EHGG 041455Z AUTO 08012KT 050V110 9000 SCT011 BKN014 OVC016 02/M00 Q1019 NOSIG
15:25
M
2 °C 9 km 1.100 ft 080° 080° 13 kt METAR EHGG 041425Z AUTO 08013KT 050V120 9000 BKN011 OVC014 02/M00 Q1019 NOSIG
14:55
M
2 °C 10 km+ 1.400 ft 060° 060° 12 kt METAR EHGG 041355Z AUTO 06012KT 9999 SCT012 BKN014 OVC017 02/M00 Q1019 TEMPO BKN014
14:25
M
2 °C 10 km+ 1.500 ft 060° 060° 10 kt METAR EHGG 041325Z AUTO 06010KT 020V090 9999 OVC015 02/M00 Q1019 TEMPO BKN014
13:55
M
2 °C 10 km+ 1.600 ft 070° 070° 11 kt METAR EHGG 041255Z AUTO 07011KT 9999 BKN016 OVC019 02/M01 Q1020 TEMPO BKN014
13:25
M
2 °C 10 km+ 1.800 ft 080° 080° 10 kt METAR EHGG 041225Z AUTO 08010KT 050V120 9999 OVC018 02/M01 Q1019 TEMPO BKN014
12:55
M
2 °C 10 km+ 1.700 ft 070° 070° 14 kt METAR EHGG 041155Z AUTO 07014KT 9999 FEW014 OVC017 02/M01 Q1020 BECMG BKN014
12:25
M
2 °C 10 km+ 2.000 ft 070° 070° 11 kt METAR EHGG 041125Z AUTO 07011KT 040V100 9999 OVC020 02/M01 Q1020 NOSIG
11:55
M
2 °C 10 km+ 2.000 ft 060° 060° 11 kt METAR EHGG 041055Z AUTO 06011KT 9999 FEW016 OVC020 02/M01 Q1020 TEMPO 7000 BKN014
11:25
M
2 °C 9 km 2.000 ft 060° 060° 11 kt METAR EHGG 041025Z AUTO 06011KT 030V090 9000 OVC020 02/M01 Q1020 TEMPO 7000 BKN014
10:55
M
1 °C 8 km 1.900 ft 060° 060° 10 kt METAR EHGG 040955Z AUTO 06010KT 8000 OVC019 01/M01 Q1020 TEMPO 8000
10:25
M
1 °C 7 km 1.400 ft 070° 070° 11 kt METAR EHGG 040925Z AUTO 07011KT 030V090 7000 SCT011 BKN014 OVC020 01/M01 Q1020 TEMPO 8000
09:55
M
0 °C 6 km 1.200 ft 070° 070° 11 kt METAR EHGG 040855Z AUTO 07011KT 6000 FEW009 SCT010 BKN012 00/M01 Q1020 TEMPO 6000 -SG BKN012
09:25
I
0 °C 4,5 km 1.000 ft 070° 070° 11 kt METAR EHGG 040825Z AUTO 07011KT 040V100 4500 DZ FEW008 OVC010 00/M01 Q1020 REFZRADZ TEMPO 6000 -SG BKN008
08:55
I
0 °C 3,4 km 800 ft 070° 070° 10 kt METAR EHGG 040755Z AUTO 07010KT 040V100 3400 -FZRA -SN FEW007 BKN008 OVC010 M00/M02 Q1020 TEMPO 4000 -SG BKN012
08:25
I
0 °C 3,4 km 1.800 ft 060° 060° 10 kt METAR EHGG 040725Z AUTO 06010KT 3400 -FZRA -SN FEW008 SCT010 BKN018 M00/M02 Q1020 TEMPO BKN012
07:55
I
0 °C 4,9 km 2.000 ft 070° 070° 9 kt METAR EHGG 040655Z AUTO 07009KT 040V100 4900 -FZRA -SN FEW008 OVC020 M00/M02 Q1020 TEMPO BKN012
07:25
M
0 °C 6 km 2.100 ft 060° 060° 8 kt METAR EHGG 040625Z AUTO 06008KT 6000 FEW010 OVC021 M00/M02 Q1020 TEMPO BKN010
06:55
M
0 °C 7 km 2.000 ft 070° 070° 8 kt METAR EHGG 040555Z AUTO 07008KT 040V100 7000 SCT010 OVC020 M00/M02 Q1020 TEMPO BKN010
06:25
M
0 °C 7 km 1.000 ft 080° 080° 8 kt METAR EHGG 040525Z AUTO 08008KT 050V110 7000 FEW009 OVC010 M00/M03 Q1020 TEMPO BKN020
05:55
M
0 °C 7 km 1.100 ft 080° 080° 9 kt METAR EHGG 040455Z AUTO 08009KT 040V120 7000 FEW009 OVC011 M00/M03 Q1020
05:25
M
0 °C 7 km 1.000 ft 070° 070° 8 kt METAR EHGG 040425Z AUTO 07008KT 7000 BKN010 OVC012 M00/M03 Q1020 REFZRA
04:55
M
0 °C 6 km 1.100 ft 070° 070° 9 kt METAR EHGG 040355Z AUTO 07009KT 040V100 6000 BKN011 BKN024 OVC029 M00/M03 Q1020
04:25
M
0 °C 7 km 2.200 ft 080° 080° 9 kt METAR EHGG 040325Z AUTO 08009KT 050V110 7000 FEW011 SCT013 BKN022 M00/M03 Q1020
03:55
M
0 °C 8 km 2.700 ft 080° 080° 8 kt METAR EHGG 040255Z AUTO 08008KT 040V120 8000 OVC027 M00/M03 Q1020
03:25
M
0 °C 8 km 2.800 ft 070° 070° 9 kt METAR EHGG 040225Z AUTO 07009KT 040V100 8000 OVC028 M00/M03 Q1020
02:55
V
0 °C 10 km+ 3.100 ft 080° 080° 9 kt METAR EHGG 040155Z AUTO 08009KT 050V110 9999 FEW017 OVC031 00/M03 Q1020
02:25
V
0 °C 10 km+ 3.500 ft 080° 080° 10 kt METAR EHGG 040125Z AUTO 08010KT 040V110 9999 FEW018 OVC035 00/M04 Q1020
01:55
V
0 °C 10 km+ 3.800 ft 070° 070° 9 kt METAR EHGG 040055Z AUTO 07009KT 040V100 9999 OVC038 00/M03 Q1020
01:25
V
1 °C 10 km+ 3.700 ft 080° 080° 8 kt METAR EHGG 040025Z AUTO 08008KT 040V110 9999 OVC037/// 01/M03 Q1020
00:55
V
1 °C 10 km+ 3.800 ft 070° 070° 10 kt METAR EHGG 032355Z AUTO 07010KT 9999 FEW016 OVC038 01/M03 Q1020
00:25
V
1 °C 9 km 4.000 ft 080° 080° 8 kt METAR EHGG 032325Z AUTO 08008KT 040V110 9000 FEW014 OVC040 01/M02 Q1020

3 de dezembro de 2022

Hora Código Clima Temp. Visibilidade Tecto Vento METAR/SPECI
23:55
V
0 °C 9 km 4.100 ft 080° 080° 9 kt METAR EHGG 032255Z AUTO 08009KT 050V110 9000 SCT016 OVC041 00/M02 Q1020
23:25
V
0 °C 9 km 4.000 ft 080° 080° 8 kt METAR EHGG 032225Z AUTO 08008KT 050V110 9000 SCT016 OVC040 00/M03 Q1021
22:55
V
0 °C 10 km+ 3.800 ft 090° 090° 11 kt METAR EHGG 032155Z AUTO 09011KT 050V120 9999 SCT016 OVC038 00/M03 Q1021 NOSIG
22:25
M
1 °C 10 km+ 1.600 ft 090° 090° 12 kt METAR EHGG 032125Z AUTO 09012KT 050V120 9999 OVC016 01/M03 Q1021 NOSIG
21:55
M
1 °C 10 km+ 1.700 ft 090° 090° 10 kt METAR EHGG 032055Z AUTO 09010KT 050V160 9999 OVC017 01/M02 Q1021 NOSIG
21:25
M
1 °C 10 km+ 1.700 ft 080° 080° 9 kt METAR EHGG 032025Z AUTO 08009KT 050V130 9999 OVC017 01/M02 Q1021 NOSIG
20:55
M
1 °C 10 km+ 2.000 ft 070° 070° 12 kt METAR EHGG 031955Z AUTO 07012KT 030V140 9999 OVC020 01/M02 Q1021 NOSIG
20:25
M
1 °C 10 km+ 2.000 ft 070° 070° 11 kt METAR EHGG 031925Z AUTO 07011KT 040V110 9999 BKN020 OVC024 01/M02 Q1021 NOSIG
19:55
M
1 °C 10 km+ 2.200 ft 070° 070° 11 kt METAR EHGG 031855Z AUTO 07011KT 040V120 9999 SCT018 OVC022 01/M01 Q1021 NOSIG
19:25
M
1 °C 9 km 2.100 ft 060° 060° 9 kt METAR EHGG 031825Z AUTO 06009KT 030V090 9000 SCT017 OVC021 01/M01 Q1021 NOSIG
18:55
M
1 °C 10 km+ 1.700 ft 070° 070° 9 kt METAR EHGG 031755Z AUTO 07009KT 040V100 9999 BKN017 OVC020 01/M02 Q1021 NOSIG
18:25
M
1 °C 10 km+ 1.700 ft 070° 070° 10 kt METAR EHGG 031725Z AUTO 07010KT 9999 BKN017 OVC020 01/M02 Q1021 NOSIG
17:55
M
1 °C 10 km+ 1.700 ft 070° 070° 8 kt METAR EHGG 031655Z AUTO 07008KT 040V100 9999 OVC017 01/M02 Q1021 NOSIG
17:25
M
1 °C 10 km+ 1.700 ft 070° 070° 10 kt METAR EHGG 031625Z AUTO 07010KT 020V100 9999 BKN017 BKN021 01/M02 Q1021 NOSIG
16:55
V
1 °C 10 km+ - 070° 070° 8 kt METAR EHGG 031555Z AUTO 07008KT 9999 FEW021 01/M02 Q1021 NOSIG
16:25
M
1 °C 10 km+ 2.200 ft 070° 070° 11 kt METAR EHGG 031525Z AUTO 07011KT 040V120 9999 SCT018 OVC022 01/M02 Q1022 NOSIG
15:55
M
1 °C 10 km+ 1.600 ft 070° 070° 12 kt METAR EHGG 031455Z AUTO 07012KT 9999 BKN016 OVC020 01/M02 Q1022 NOSIG
15:25
M
2 °C 10 km+ 2.000 ft 080° 080° 13 kt METAR EHGG 031425Z AUTO 08013KT 040V110 9999 SCT017 OVC020 02/M02 Q1022 TEMPO BKN014
14:55
V
2 °C 10 km+ - 070° 070° 11 kt METAR EHGG 031355Z AUTO 07011KT 040V100 9999 NSC 02/M02 Q1022 TEMPO BKN014
14:25
V
2 °C 10 km+ - 080° 080° 12 kt METAR EHGG 031325Z AUTO 08012KT 040V100 9999 FEW017 02/M02 Q1022 TEMPO BKN014
13:55
V
2 °C 10 km+ - 080° 080° 11 kt METAR EHGG 031255Z AUTO 08011KT 030V120 9999 FEW017 02/M02 Q1022 TEMPO BKN014
13:25
V
2 °C 10 km+ - 070° 070° 10 kt METAR EHGG 031225Z AUTO 07010KT 040V110 9999 FEW016 02/M01 Q1022 TEMPO BKN014
12:55
V
2 °C 10 km+ - 070° 070° 11 kt METAR EHGG 031155Z AUTO 07011KT 040V110 9999 FEW015 02/M01 Q1023 TEMPO BKN014
12:25
M
2 °C 10 km+ 1.900 ft 070° 070° 11 kt METAR EHGG 031125Z AUTO 07011KT 040V100 9999 SCT015 BKN019 02/M01 Q1023 TEMPO BKN014
11:55
M
2 °C 10 km+ 1.500 ft 060° 060° 12 kt METAR EHGG 031055Z AUTO 06012KT 9999 BKN015 02/M01 Q1023 TEMPO BKN014
11:25
V
2 °C 10 km+ - 070° 070° 12 kt METAR EHGG 031025Z AUTO 07012KT 030V100 9999 FEW014 02/M01 Q1023 TEMPO BKN014
10:55
M
2 °C 10 km+ 1.300 ft 070° 070° 10 kt METAR EHGG 030955Z AUTO 07010KT 9999 SCT011 BKN013 02/M00 Q1024 TEMPO BKN018

Nós e terceiros acompanhamos seu comportamento na internet em nosso site com cookies. Se você continuar, nós assumimos que você concorda com nosso política de cookies.